Alexandria, Minnesota
Current Conditions -  °F | °C
As of 10:53 PM on Sunday 21 Dec 2014 (Local Time) from KAXN Reporting Station
Haze Haze  
Wind Chill: 25°   Ceiling: 400
Heat Index: 35°   Visibility: 4mi
Dew Point: 34°   Wind: 17mph
Humidity: 96%   Direction: 150°SSE
Pressure: 29.59"   Gusts: NA
Location:  45.89°N, 95.37°W
Report Text: KAXN 220453Z AUTO 15015KT 4SM BR OVC004 02/01 A2959 RMK AO2 SLP037 T00170011
Loading
Personal Weather Stations






























Interactive Weather Map New forecast layout! Learn more

10-Day Weather Forecast

Advertisements
Track Severe Weather on mobile